Tropical Cyclones
[Index]
Main Index Home Page Stock Weather Photos Extreme Storms Discussion Storm News and Storm Chasing Reports Tropical Cyclones / Hurricanes / Typhoons Weather Data and Links Wild Fires / Bushfires Weather Observation Techniques Weather Picture Catalogue Tornado Pictures and Reports Stock Video Footage and DVDs for sale
Season 2006-2007 Tropical Cyclone GAMEDE Track Map
Season 2006-2007 Summaries (Operational Data): [AU] [SIO] [SPAC] [SH]
<<- Previous TC | 2006-2007 Season | Next TC ->>

click for intensity scale information  Lat/long Grid: Show Hide

 Date Labels: Show Hide

Operational Tropical Cyclone Data : JTWC Advisories

Name: GAMEDE
Number: 0715

20 Feb 2007 12:00 UTC to 04 Mar 2007 12:00 UTC

    date/time    lat    long     hPa   cat  kts
2007-02-20 12   14.8    74.8    1000         25          
2007-02-20 18   14.8    73.9     998         30          
2007-02-21 00   14.4    72.6     997         30          
2007-02-21 06   14.2    70.8     993    1    40          
2007-02-21 12   13.9    69.5     993    1    40          
2007-02-21 18   13.8    68.5     990    1    40          
2007-02-22 00   14.0    67.2     990    1    40          
2007-02-22 06   14.3    65.0     980    2    55          
2007-02-22 12   14.8    63.8     975    2    60          
2007-02-22 18   15.3    62.9     976    2    60          
2007-02-23 00   15.5    62.3     968    3    65          
2007-02-23 06   16.1    60.6     966    3    70          
2007-02-23 12   16.4    59.6     958    3    70          
2007-02-23 18   16.7    58.7     956    3    75          
2007-02-24 00   17.1    58.0     956    3    75          
2007-02-24 06   17.6    57.3     955    3    75          
2007-02-24 12   18.2    56.6     945    3    85          
2007-02-24 18   18.4    55.9     945    3    85          
2007-02-25 00   18.8    55.1     945    3    85          
2007-02-25 06   18.7    54.2     955    3    80          
2007-02-25 12   18.3    54.0     950    3    80          
2007-02-25 18   18.5    53.9     935    4    95          
2007-02-26 00   18.4    53.5     935    4    95          
2007-02-26 06   18.4    53.0     935    4    95          
2007-02-26 12   18.3    52.8     940    4    90          
2007-02-26 18   18.3    52.8     940    4    90          
2007-02-27 00   18.7    53.0     945    3    85          
2007-02-27 06   19.5    52.9     950    3    85          
2007-02-27 12   20.3    52.8     950    3    80          
2007-02-27 18   21.3    52.7     958    3    75          
2007-02-28 00   22.8    52.3     965    3    65          
2007-02-28 06   23.9    51.5     965    3    65          
2007-02-28 12   25.3    50.7     965    3    65          
2007-02-28 18   26.5    50.4     964    3    70          
2007-03-01 00   27.6    50.2     963    3    70          
2007-03-01 06   28.5    49.9     966    3    65          
2007-03-01 12   30.0    49.0     970    2    60          
2007-03-01 18   30.1    48.6     980    2    60          
2007-03-02 00   30.5    48.4     980    2    50          
2007-03-02 06   31.6    48.8     980    2    50          
2007-03-02 12   32.1    48.8     973    2    50          
2007-03-02 18   32.2    49.4     973    1    45          
2007-03-03 00   32.5    49.6     975    1    45          
2007-03-03 06   33.2    50.0     980    1    45          
2007-03-03 12   33.1    49.9     980    1    45          
2007-03-03 18   33.0    50.0     980    1    45          
2007-03-04 00   33.0    49.7     980    1    45          
2007-03-04 06   32.5    49.7     980    1    45          
2007-03-04 12   32.4    49.7     980    1    45          
Winds are 10-min average.

Tropical cyclone tracks developed by Michael Bath using operational warnings and advisories and Google Maps.


[Australian Severe Weather index] [Copyright Notice] [Email Contacts] [Search This Site] [Privacy Policy]
Document: tropical_cyclone_gamede.htm Updated: 28 May 2013